KHIB/HIB METAR and TAF weather

Enter ICAO airport designator
Station Type Date Time Source
KHIB METAR 2019/08/19 06:53 UTC NOAA

KHIB 190653Z AUTO 00000KT 10SM CLR 06/06 A2990 RMK AO2 SLP130 T00560056


Station Type Date Time Source
KHIB Decoded METAR 2019/08/19 06:53 UTC NOAA

Station name not available
Aug 19, 2019 - 02:53 AM EDT / 2019.08.19 0653 UTC
Wind: Calm:0
Visibility: 10 mile(s):0
Sky conditions: clear
Temperature: 42.1 F (5.6 C)
Dew Point: 42.1 F (5.6 C)
Relative Humidity: 100%
Pressure (altimeter): 29.9 in. Hg (1012 hPa)
ob: KHIB 190653Z AUTO 00000KT 10SM CLR 06/06 A2990 RMK AO2 SLP130 T00560056
cycle: 7

Station Type Date Time Source
KHIB TAF 2019/08/19 06:39 UTC NOAA

TAF KHIB 190536Z 1906/2006 VRB02KT P6SM SKC
TEMPO 1908/1912 4SM BR
FM191200 22004KT P6SM SKC
FM191500 23010G20KT P6SM FEW040
FM200000 24006KT P6SM SKC

Example: see airport list